Time;durP1;ratioP1;P1;durP2;ratioP2;P2;SDS_P1;SDS_P2;PMS_P1;PMS_P2;Temp;Humidity;BMP_temperature;BMP_pressure;BME280_temperature;BME280_humidity;BME280_pressure;Samples;Min_cycle;Max_cycle;Signal;HPM_P1;HPM_P2
2023/11/10 00:01:57;;;;;;;5.18;2.08;;;8.20;99.90;;;7.63;100.00;98964.78;5020160;28;20033;-81
2023/11/10 00:04:24;;;;;;;2.00;0.40;;;8.30;99.90;;;7.59;100.00;98974.47;5029771;28;20090;-80
2023/11/10 00:06:52;;;;;;;1.75;0.30;;;8.20;99.90;;;7.51;100.00;98975.66;5014864;28;20117;-82
2023/11/10 00:09:18;;;;;;;3.40;0.40;;;8.20;99.90;;;7.51;100.00;98981.09;5014428;28;20501;-81
2023/11/10 00:11:45;;;;;;;1.17;0.50;;;8.20;99.90;;;7.45;100.00;98977.44;5018260;28;20042;-80
2023/11/10 00:14:11;;;;;;;1.67;0.60;;;8.10;99.90;;;7.46;100.00;98959.28;5018761;28;20041;-82
2023/11/10 00:16:37;;;;;;;1.45;0.40;;;8.10;99.90;;;7.41;100.00;98957.25;5014740;28;20030;-82
2023/11/10 00:19:03;;;;;;;0.80;0.32;;;8.10;99.90;;;7.49;100.00;98962.31;5020426;28;20038;-80
2023/11/10 00:21:29;;;;;;;0.88;0.30;;;8.10;99.90;;;7.46;100.00;98967.41;5017719;28;20041;-81
2023/11/10 00:23:55;;;;;;;0.75;0.25;;;8.10;99.90;;;7.40;100.00;98979.19;5020047;28;20033;-80
2023/11/10 00:26:22;;;;;;;0.88;0.20;;;8.00;99.90;;;7.21;100.00;98965.78;5014227;28;20045;-81
2023/11/10 00:28:50;;;;;;;1.40;0.30;;;7.90;99.90;;;7.20;100.00;98974.97;5018586;28;20569;-81
2023/11/10 00:31:19;;;;;;;0.50;0.22;;;7.80;99.90;;;7.20;100.00;98974.97;5027689;28;20056;-81
2023/11/10 00:33:49;;;;;;;1.60;0.40;;;7.90;99.90;;;7.25;100.00;98985.94;5013968;28;20037;-82
2023/11/10 00:36:17;;;;;;;0.55;0.20;;;7.90;99.90;;;7.25;100.00;98980.50;5038629;28;20141;-81
2023/11/10 00:38:44;;;;;;;1.40;0.40;;;7.80;99.90;;;7.25;100.00;98991.34;5013898;28;20121;-81
2023/11/10 00:41:10;;;;;;;0.97;0.40;;;7.90;99.90;;;7.32;100.00;98989.34;5016430;28;20041;-81
2023/11/10 00:43:36;;;;;;;1.48;0.45;;;7.90;99.90;;;7.46;100.00;98986.41;5017764;28;20299;-81
2023/11/10 00:46:02;;;;;;;1.77;0.40;;;8.00;99.90;;;7.45;100.00;98990.19;5038638;28;20048;-81
2023/11/10 00:48:27;;;;;;;2.10;0.43;;;8.10;99.90;;;7.52;100.00;98995.47;5019345;28;20044;-82
2023/11/10 00:50:53;;;;;;;1.75;0.40;;;8.10;99.90;;;7.52;100.00;98999.00;5019311;28;20042;-81
2023/11/10 00:53:22;;;;;;;1.75;0.50;;;8.10;99.90;;;7.48;100.00;99001.38;5013106;28;20038;-80
2023/11/10 00:55:49;;;;;;;1.10;0.30;;;8.10;99.90;;;7.49;100.00;98996.78;5013799;28;20037;-81
2023/11/10 00:58:15;;;;;;;1.13;0.30;;;8.10;99.90;;;7.53;100.00;98992.53;5013700;28;20030;-80
2023/11/10 01:00:41;;;;;;;3.00;0.60;;;8.10;99.90;;;7.50;100.00;98995.72;5013130;28;20057;-81
2023/11/10 01:03:07;;;;;;;1.10;0.40;;;8.10;99.90;;;7.44;100.00;98972.25;5018876;28;20059;-82
2023/11/10 01:05:33;;;;;;;1.48;0.30;;;8.10;99.90;;;7.33;100.00;98963.88;5016858;28;20080;-80
2023/11/10 01:07:59;;;;;;;2.10;0.60;;;8.10;99.90;;;7.25;100.00;98952.53;5022522;28;20044;-82
2023/11/10 01:10:25;;;;;;;2.10;0.50;;;8.00;99.90;;;7.15;100.00;98955.84;5017469;28;20042;-80
2023/11/10 01:12:51;;;;;;;2.28;1.02;;;7.80;99.90;;;7.08;100.00;98955.97;5022937;28;20061;-81
2023/11/10 01:15:17;;;;;;;2.20;0.65;;;7.80;99.90;;;6.96;100.00;98969.53;5030968;28;20135;-79
2023/11/10 01:17:44;;;;;;;4.25;0.75;;;7.60;99.90;;;6.88;100.00;98972.56;5031700;28;20060;-82
2023/11/10 01:20:11;;;;;;;2.65;0.50;;;7.50;99.90;;;6.86;100.00;98978.22;5020808;28;20037;-80
2023/11/10 01:22:40;;;;;;;2.05;0.45;;;7.50;99.90;;;6.80;100.00;98976.47;5018970;28;20087;-81
2023/11/10 01:25:10;;;;;;;4.15;0.70;;;7.40;99.90;;;6.71;100.00;98967.00;5040383;28;20397;-80
2023/11/10 01:27:36;;;;;;;1.75;0.60;;;7.40;99.90;;;6.72;100.00;98974.91;5026280;28;20034;-80
2023/11/10 01:30:02;;;;;;;1.25;0.50;;;7.30;99.90;;;6.67;100.00;98965.81;5032836;28;20045;-82
2023/11/10 01:32:28;;;;;;;1.77;0.55;;;7.30;99.90;;;6.62;100.00;98959.22;5013587;28;20111;-80
2023/11/10 01:34:54;;;;;;;3.13;0.47;;;7.20;99.90;;;6.56;100.00;98956.59;5018830;28;20038;-81
2023/11/10 01:37:20;;;;;;;2.38;0.60;;;7.20;99.90;;;6.48;100.00;98955.03;5017932;28;20492;-79
2023/11/10 01:39:46;;;;;;;1.02;0.43;;;7.20;99.90;;;6.52;100.00;98966.25;4996360;28;20037;-81
2023/11/10 01:42:13;;;;;;;1.30;0.50;;;7.10;99.90;;;6.44;100.00;98967.41;5016593;28;20056;-80
2023/11/10 01:44:38;;;;;;;0.88;0.40;;;7.10;99.90;;;6.41;100.00;98957.88;5011659;28;20052;-81
2023/11/10 01:47:06;;;;;;;2.83;1.63;;;7.00;99.90;;;6.38;100.00;98961.03;5015217;28;20038;-80
2023/11/10 01:49:34;;;;;;;3.53;0.70;;;7.00;99.90;;;6.42;100.00;98967.66;5012973;28;20117;-80
2023/11/10 01:52:01;;;;;;;2.42;0.70;;;7.00;99.90;;;6.41;100.00;98959.72;5020724;28;20041;-81
2023/11/10 01:54:34;;;;;;;1.90;0.60;;;7.00;99.90;;;6.47;100.00;98959.66;4999571;28;20080;-81
2023/11/10 01:57:05;;;;;;;2.53;1.85;;;7.10;99.90;;;6.53;100.00;98962.47;5012343;28;20097;-79
2023/11/10 01:59:36;;;;;;;1.75;0.55;;;7.10;99.90;;;6.52;100.00;98967.09;5013720;28;20145;-81
2023/11/10 02:02:06;;;;;;;2.15;0.68;;;7.20;99.90;;;6.44;100.00;98973.66;5016545;28;20041;-80
2023/11/10 02:04:33;;;;;;;2.25;0.70;;;7.10;99.90;;;6.46;100.00;98982.38;5013117;28;20034;-80
2023/11/10 02:06:59;;;;;;;2.35;0.55;;;7.10;99.90;;;6.42;100.00;98980.34;5013874;28;20033;-81
2023/11/10 02:09:25;;;;;;;2.45;0.60;;;7.10;99.90;;;6.39;100.00;98978.94;5033178;28;22207;-82
2023/11/10 02:11:51;;;;;;;2.58;0.70;;;7.00;99.90;;;6.36;100.00;98973.97;5032485;28;20049;-83
2023/11/10 02:14:17;;;;;;;2.22;0.65;;;6.90;99.90;;;6.31;100.00;98973.81;5011947;28;20084;-83
2023/11/10 02:16:43;;;;;;;2.85;0.82;;;6.90;99.90;;;6.23;100.00;98957.91;5023359;28;20044;-81
2023/11/10 02:19:15;;;;;;;2.70;0.65;;;6.80;99.90;;;6.29;100.00;98954.28;5016895;28;20079;-82
2023/11/10 02:21:43;;;;;;;2.78;0.80;;;6.80;99.90;;;6.28;100.00;98949.91;5032661;28;20128;-81
2023/11/10 02:24:13;;;;;;;3.22;0.73;;;6.80;99.90;;;6.12;100.00;98929.72;5011354;28;20120;-82
2023/11/10 02:26:39;;;;;;;3.60;0.85;;;6.70;99.90;;;6.19;100.00;98954.81;5041106;28;20069;-81
2023/11/10 02:29:07;;;;;;;5.05;0.68;;;6.70;99.90;;;6.11;100.00;98942.44;5034771;28;20072;-81
2023/11/10 02:31:34;;;;;;;2.83;0.90;;;6.70;99.90;;;6.13;100.00;98934.09;5019096;28;20623;-81
2023/11/10 02:34:00;;;;;;;2.50;0.52;;;6.70;99.90;;;6.16;100.00;98939.03;5009067;28;20034;-82
2023/11/10 02:36:30;;;;;;;2.17;0.70;;;6.60;99.90;;;6.13;100.00;98940.34;5012689;28;20037;-81
2023/11/10 02:38:56;;;;;;;3.72;0.85;;;6.60;99.90;;;6.09;100.00;98938.31;5028751;28;20116;-81
2023/11/10 02:41:22;;;;;;;3.15;1.08;;;6.60;99.90;;;6.10;100.00;98927.25;5017351;28;20056;-82
2023/11/10 02:43:48;;;;;;;4.25;0.82;;;6.60;99.90;;;6.08;100.00;98931.25;5015550;28;20038;-82
2023/11/10 02:46:14;;;;;;;4.30;0.98;;;6.60;99.90;;;6.12;100.00;98937.84;5015609;28;20037;-81
2023/11/10 02:48:39;;;;;;;3.58;0.73;;;6.60;99.90;;;6.11;100.00;98937.03;5031155;28;20033;-82
2023/11/10 02:51:05;;;;;;;4.07;1.27;;;6.50;99.90;;;6.08;100.00;98942.88;5028099;28;20037;-80
2023/11/10 02:53:32;;;;;;;4.60;0.85;;;6.50;99.90;;;6.11;100.00;98941.63;5011349;28;20080;-81
2023/11/10 02:55:58;;;;;;;1.95;0.65;;;6.60;99.90;;;6.21;100.00;98944.59;5013874;28;20029;-81
2023/11/10 02:58:23;;;;;;;2.33;0.68;;;6.70;99.90;;;6.24;100.00;98935.19;5021473;28;20607;-81
2023/11/10 03:00:53;;;;;;;2.72;1.00;;;6.80;99.90;;;6.39;100.00;98941.03;5019481;28;20038;-82
2023/11/10 03:03:19;;;;;;;2.30;0.75;;;6.90;99.90;;;6.46;100.00;98941.75;5020016;28;20151;-81
2023/11/10 03:05:45;;;;;;;2.25;0.70;;;7.00;99.90;;;6.54;100.00;98939.75;5023113;28;20400;-81
2023/11/10 03:08:11;;;;;;;3.33;0.65;;;7.10;99.90;;;6.61;100.00;98946.72;5022896;28;20065;-81
2023/11/10 03:10:37;;;;;;;4.30;0.93;;;7.20;99.90;;;6.71;100.00;98938.03;5036767;28;20069;-80
2023/11/10 03:13:03;;;;;;;0.88;0.60;;;7.30;99.90;;;6.73;100.00;98945.91;5027230;28;20069;-81
2023/11/10 03:15:29;;;;;;;3.40;0.65;;;7.40;99.90;;;6.79;100.00;98931.44;5024875;28;20481;-80
2023/11/10 03:17:56;;;;;;;2.83;0.73;;;7.50;99.90;;;6.76;100.00;98927.31;5022935;28;20084;-80
2023/11/10 03:20:23;;;;;;;7.65;0.60;;;7.40;99.90;;;6.67;100.00;98922.44;5028046;28;20223;-79
2023/11/10 03:22:49;;;;;;;3.92;0.60;;;7.40;99.90;;;6.57;100.00;98904.06;5015423;28;20583;-80
2023/11/10 03:25:16;;;;;;;2.67;0.52;;;7.30;99.90;;;6.53;100.00;98911.00;5015039;28;20065;-81
2023/11/10 03:27:42;;;;;;;4.63;0.80;;;7.20;99.90;;;6.39;100.00;98899.53;5019091;28;20037;-80
2023/11/10 03:30:11;;;;;;;5.15;0.80;;;7.10;99.90;;;6.48;100.00;98914.41;5018663;28;20112;-79
2023/11/10 03:32:37;;;;;;;2.85;0.63;;;7.10;99.90;;;6.45;100.00;98914.88;5017521;28;20465;-80
2023/11/10 03:35:06;;;;;;;5.45;1.05;;;7.10;99.90;;;6.44;100.00;98922.19;5015730;28;20382;-80
2023/11/10 03:37:31;;;;;;;2.38;0.70;;;7.10;99.90;;;6.42;100.00;98910.75;5016872;28;20041;-81
2023/11/10 03:39:57;;;;;;;3.42;0.50;;;7.10;99.90;;;6.35;100.00;98909.19;5031655;28;20498;-80
2023/11/10 03:42:23;;;;;;;5.03;0.70;;;7.00;99.90;;;6.38;100.00;98924.97;5014994;28;20088;-81
2023/11/10 03:44:49;;;;;;;4.93;0.90;;;6.90;99.90;;;6.33;100.00;98925.66;5017409;28;20783;-81
2023/11/10 03:47:14;;;;;;;4.20;0.43;;;6.90;99.90;;;6.31;100.00;98914.25;5012394;28;20057;-80
2023/11/10 03:49:40;;;;;;;2.60;0.68;;;6.90;99.90;;;6.42;100.00;98929.72;5035347;28;20052;-82
2023/11/10 03:52:07;;;;;;;2.33;0.75;;;7.00;99.90;;;6.39;100.00;98932.06;5013654;28;20115;-82
2023/11/10 03:54:33;;;;;;;3.20;0.73;;;6.90;99.90;;;6.37;100.00;98940.44;5021332;28;20041;-81
2023/11/10 03:56:59;;;;;;;3.30;0.73;;;6.80;99.90;;;6.39;100.00;98938.31;5014654;28;20038;-82
2023/11/10 03:59:24;;;;;;;3.03;0.68;;;6.80;99.90;;;6.39;100.00;98943.72;5035826;28;20112;-81
2023/11/10 04:01:50;;;;;;;4.38;0.73;;;6.80;99.90;;;6.39;100.00;98930.19;5018830;28;20037;-82
2023/11/10 04:04:16;;;;;;;5.97;0.70;;;6.90;99.90;;;6.54;100.00;98951.44;5018889;28;20033;-82
2023/11/10 04:06:42;;;;;;;2.80;0.80;;;7.00;99.90;;;6.66;100.00;98954.16;5014596;28;20041;-82
2023/11/10 04:09:08;;;;;;;5.53;0.85;;;7.10;99.90;;;6.69;100.00;98945.56;5022495;28;20026;-81
2023/11/10 04:11:34;;;;;;;4.47;0.80;;;7.20;99.90;;;6.78;100.00;98947.91;5014788;28;20462;-82
2023/11/10 04:13:59;;;;;;;3.22;0.63;;;7.30;99.90;;;6.89;100.00;98949.81;5014417;28;20045;-82
2023/11/10 04:16:26;;;;;;;2.72;0.70;;;7.30;99.90;;;6.91;100.00;98955.84;5024036;28;20034;-82
2023/11/10 04:18:53;;;;;;;7.82;1.10;;;7.30;99.90;;;6.89;100.00;98941.69;5014419;28;20041;-81
2023/11/10 04:21:22;;;;;;;4.72;0.90;;;7.30;99.90;;;6.90;100.00;98944.16;5013108;28;20060;-82
2023/11/10 04:23:49;;;;;;;4.32;0.93;;;7.30;99.90;;;6.86;100.00;98937.56;5013730;28;20049;-82
2023/11/10 04:26:15;;;;;;;4.60;0.80;;;7.20;99.90;;;6.89;100.00;98931.66;5016965;28;20060;-81
2023/11/10 04:28:47;;;;;;;5.60;1.00;;;7.30;99.90;;;6.90;100.00;98932.50;5019383;28;20091;-82
2023/11/10 04:31:14;;;;;;;3.72;0.90;;;7.30;99.90;;;6.77;100.00;98917.28;5028685;28;20108;-82
2023/11/10 04:33:41;;;;;;;3.90;0.70;;;7.20;99.90;;;6.78;100.00;98934.38;5019395;28;20037;-81
2023/11/10 04:36:07;;;;;;;2.97;0.73;;;7.10;99.90;;;6.72;100.00;98925.28;5016733;28;20033;-82
2023/11/10 04:38:35;;;;;;;3.92;1.00;;;7.10;99.90;;;6.71;100.00;98918.22;5019789;28;20079;-82
2023/11/10 04:41:02;;;;;;;4.50;0.85;;;7.10;99.90;;;6.69;100.00;98921.16;5027733;28;20037;-81
2023/11/10 04:43:29;;;;;;;5.53;1.05;;;7.10;99.90;;;6.56;100.00;98908.66;5014144;28;20045;-82
2023/11/10 04:45:54;;;;;;;5.72;1.10;;;7.00;99.90;;;6.48;100.00;98903.56;5013783;28;20045;-81
2023/11/10 04:48:21;;;;;;;5.53;1.05;;;7.00;99.90;;;6.48;100.00;98911.69;5013688;28;20038;-81
2023/11/10 04:50:47;;;;;;;4.45;0.90;;;6.90;99.90;;;6.35;100.00;98910.00;5024682;28;20475;-81
2023/11/10 04:53:13;;;;;;;5.88;0.80;;;6.80;99.90;;;6.33;100.00;98912.97;5022636;28;20068;-82
2023/11/10 04:55:40;;;;;;;4.95;0.88;;;6.80;99.90;;;6.24;100.00;98900.81;5021648;28;20130;-82
2023/11/10 04:58:06;;;;;;;5.80;1.00;;;6.70;99.90;;;6.26;100.00;98911.41;5020001;28;20509;-82
2023/11/10 05:00:33;;;;;;;3.80;0.90;;;6.70;99.90;;;6.25;100.00;98907.88;5013559;28;20041;-82
2023/11/10 05:03:03;;;;;;;4.72;0.90;;;6.70;99.90;;;6.28;100.00;98926.38;5011700;28;20033;-82
2023/11/10 05:05:29;;;;;;;7.28;1.10;;;6.70;99.90;;;6.26;100.00;98923.06;5016289;28;20113;-82
2023/11/10 05:07:55;;;;;;;4.55;1.00;;;6.70;99.90;;;6.25;100.00;98915.16;5019159;28;20040;-81
2023/11/10 05:10:21;;;;;;;3.88;0.88;;;6.70;99.90;;;6.27;100.00;98922.03;5015509;28;20034;-82
2023/11/10 05:12:47;;;;;;;6.18;0.98;;;6.70;99.90;;;6.26;100.00;98923.06;5013400;28;20041;-81
2023/11/10 05:15:14;;;;;;;3.92;0.88;;;6.70;99.90;;;6.21;100.00;98922.91;5020870;28;20034;-81
2023/11/10 05:17:44;;;;;;;4.33;1.10;;;6.70;99.90;;;6.21;100.00;98927.53;5031340;28;20034;-82
2023/11/10 05:20:12;;;;;;;5.18;1.10;;;6.60;99.90;;;6.15;100.00;98918.44;5013304;28;20116;-80
2023/11/10 05:22:40;;;;;;;;;;;6.60;99.90;;;6.14;100.00;98909.50;5017680;28;20026;-82
2023/11/10 05:25:07;;;;;;;8.50;1.20;;;6.60;99.90;;;6.17;100.00;98916.31;5018714;28;20017;-81
2023/11/10 05:27:33;;;;;;;4.95;0.90;;;6.70;99.90;;;6.14;100.00;98906.78;5018707;28;20412;-80
2023/11/10 05:29:59;;;;;;;3.03;0.80;;;6.60;99.90;;;6.15;100.00;98907.59;5017078;28;20073;-80
2023/11/10 05:32:26;;;;;;;4.00;1.10;;;6.60;99.90;;;6.13;100.00;98899.72;5015798;28;20450;-80
2023/11/10 05:34:54;;;;;;;4.57;0.70;;;6.70;99.90;;;6.05;100.00;98897.31;5025681;28;20437;-81
2023/11/10 05:37:30;;;;;;;4.25;0.88;;;6.60;99.90;;;6.09;100.00;98893.09;5011240;28;20294;-80
2023/11/10 05:39:56;;;;;;;2.92;0.80;;;6.70;99.90;;;6.14;100.00;98903.25;5012772;28;20038;-80
2023/11/10 05:42:22;;;;;;;3.40;1.15;;;6.70;99.90;;;6.20;100.00;98896.91;5018390;28;20038;-80
2023/11/10 05:44:50;;;;;;;1.35;0.50;;;6.80;99.90;;;6.26;100.00;98903.28;5012631;28;20041;-80
2023/11/10 05:47:16;;;;;;;;;;;6.90;99.90;;;6.33;100.00;98912.97;5013142;28;20026;-79
2023/11/10 05:49:42;;;;;;;3.80;0.82;;;6.90;99.90;;;6.32;100.00;98905.91;5012888;28;19924;-78
2023/11/10 05:52:13;;;;;;;3.03;0.60;;;7.00;99.90;;;6.26;100.00;98897.88;5014601;28;20401;-80
2023/11/10 05:54:40;;;;;;;4.97;1.15;;;7.00;99.90;;;6.28;100.00;98902.00;5020326;28;20042;-78
2023/11/10 05:57:06;;;;;;;4.40;0.90;;;7.00;99.90;;;6.22;100.00;98902.91;5019256;28;20033;-79
2023/11/10 05:59:35;;;;;;;2.95;0.70;;;6.90;99.90;;;6.11;100.00;98899.13;5030570;28;20038;-79
2023/11/10 06:02:02;;;;;;;2.72;0.70;;;6.80;99.90;;;6.04;100.00;98914.63;5021251;28;20076;-79
2023/11/10 06:04:28;;;;;;;3.63;0.60;;;6.70;99.90;;;5.95;100.00;98900.53;5014340;28;20038;-79
2023/11/10 06:06:53;;;;;;;4.43;0.90;;;6.60;99.90;;;5.94;100.00;98911.63;5015563;28;20068;-79
2023/11/10 06:09:21;;;;;;;4.88;0.88;;;6.60;99.90;;;5.77;100.00;98898.72;5016448;28;20074;-81
2023/11/10 06:11:49;;;;;;;6.10;0.85;;;6.50;99.90;;;5.89;100.00;98917.72;5016182;28;20390;-81
2023/11/10 06:14:17;;;;;;;;;;;6.50;99.90;;;5.94;100.00;98914.31;5012673;28;20038;-78
2023/11/10 06:16:44;;;;;;;4.18;0.90;;;6.50;99.90;;;5.80;100.00;98909.06;5014986;28;19940;-82
2023/11/10 06:19:10;;;;;;;3.85;1.00;;;6.50;99.90;;;5.78;100.00;98907.66;5031550;28;20209;-81
2023/11/10 06:21:37;;;;;;;1.50;0.70;;;6.50;99.90;;;5.76;100.00;98899.75;5018860;28;20053;-81
2023/11/10 06:24:03;;;;;;;2.65;0.80;;;6.50;99.90;;;5.82;100.00;98903.44;5017549;28;20034;-79
2023/11/10 06:26:30;;;;;;;2.17;0.75;;;6.60;99.90;;;5.78;100.00;98894.94;5014111;28;20083;-80
2023/11/10 06:28:58;;;;;;;2.08;0.73;;;6.60;99.90;;;5.83;100.00;98891.56;5014654;28;20042;-79
2023/11/10 06:31:24;;;;;;;3.00;0.88;;;6.70;99.90;;;5.93;100.00;98897.25;5013078;28;20033;-79
2023/11/10 06:33:51;;;;;;;3.03;1.00;;;6.70;99.90;;;5.83;100.00;98878.84;5016262;28;20049;-79
2023/11/10 06:36:18;;;;;;;4.05;1.10;;;6.70;99.90;;;5.93;100.00;98894.53;5018547;28;20037;-80
2023/11/10 06:38:47;;;;;;;3.97;1.00;;;6.70;99.90;;;5.91;100.00;98899.34;5015408;28;20040;-78
2023/11/10 06:41:14;;;;;;;3.65;1.13;;;6.70;99.90;;;5.94;100.00;98898.09;5018747;28;20084;-77
2023/11/10 06:43:42;;;;;;;3.53;0.80;;;6.70;99.90;;;5.84;100.00;98883.22;5011676;28;20029;-77
2023/11/10 06:46:09;;;;;;;2.58;0.70;;;6.70;99.90;;;5.83;100.00;98886.16;5017579;28;20041;-77
2023/11/10 06:48:38;;;;;;;3.45;0.88;;;6.70;99.90;;;5.89;100.00;98902.31;5019607;28;20117;-77
2023/11/10 06:51:04;;;;;;;3.58;0.93;;;6.70;99.90;;;5.92;100.00;98895.59;5020906;28;20382;-77
2023/11/10 06:53:30;;;;;;;2.95;0.90;;;6.70;99.90;;;5.81;100.00;98891.78;5016937;28;20041;-78
2023/11/10 06:55:56;;;;;;;1.58;0.80;;;6.70;99.90;;;5.77;100.00;98887.88;5019557;28;20049;-78
2023/11/10 06:58:25;;;;;;;4.60;1.00;;;6.70;99.90;;;5.77;100.00;98887.88;5016486;28;20038;-77
2023/11/10 07:00:50;;;;;;;2.40;0.60;;;6.70;99.90;;;5.78;100.00;98894.94;5030259;28;20402;-78
2023/11/10 07:03:19;;;;;;;1.60;0.70;;;6.60;99.90;;;5.83;100.00;98902.38;5025219;28;20037;-77
2023/11/10 07:05:45;;;;;;;1.80;0.70;;;6.60;99.90;;;5.74;100.00;98891.03;5020851;28;20448;-78
2023/11/10 07:08:11;;;;;;;2.83;1.02;;;6.60;99.90;;;5.76;100.00;98891.66;5012338;28;20096;-78
2023/11/10 07:10:43;;;;;;;4.28;1.05;;;6.60;99.90;;;5.78;100.00;98888.72;5015513;28;20026;-77
2023/11/10 07:13:14;;;;;;;4.32;0.95;;;6.60;99.90;;;5.85;100.00;98911.09;5015958;28;20029;-79
2023/11/10 07:15:40;;;;;;;2.55;0.98;;;6.60;99.90;;;5.96;100.00;98909.50;5019868;28;20037;-79
2023/11/10 07:18:06;;;;;;;5.55;1.23;;;6.70;99.90;;;6.13;100.00;98907.00;5015330;28;20033;-79
2023/11/10 07:20:32;;;;;;;4.35;0.80;;;6.80;99.90;;;6.33;100.00;98918.38;5021467;28;20485;-78
2023/11/10 07:22:59;;;;;;;3.50;0.80;;;6.90;99.90;;;6.39;100.00;98927.47;5026484;28;20030;-79
2023/11/10 07:25:26;;;;;;;4.50;1.13;;;7.00;99.90;;;6.42;100.00;98927.00;5017117;28;20041;-79
2023/11/10 07:27:55;;;;;;;2.63;0.75;;;7.10;99.90;;;6.55;100.00;98938.69;5020250;28;20125;-80
2023/11/10 07:30:22;;;;;;;2.53;0.73;;;7.10;99.90;;;6.71;100.00;98938.03;5023633;28;20136;-79
2023/11/10 07:32:49;;;;;;;3.60;0.80;;;7.30;99.90;;;6.88;100.00;98942.75;5024568;28;20060;-79
2023/11/10 07:35:16;;;;;;;1.15;0.60;;;7.50;99.90;;;6.96;100.00;98945.13;5016941;28;20398;-78
2023/11/10 07:37:44;;;;;;;3.15;0.73;;;7.60;99.90;;;7.03;100.00;98942.31;5019202;28;20122;-79
2023/11/10 07:40:14;;;;;;;1.92;0.73;;;7.70;99.90;;;7.15;100.00;98951.25;5017493;28;20025;-79
2023/11/10 07:42:46;;;;;;;1.52;0.70;;;7.70;99.90;;;7.20;100.00;98954.06;5022630;28;20422;-79
2023/11/10 07:45:14;;;;;;;3.70;1.00;;;7.80;99.90;;;7.16;100.00;98952.06;5018288;28;20026;-79
2023/11/10 07:47:45;;;;;;;3.28;1.02;;;7.90;99.90;;;7.07;100.00;98953.50;5016329;28;20052;-79
2023/11/10 07:50:13;;;;;;;2.97;0.70;;;7.80;99.90;;;7.05;100.00;98951.03;5017987;28;20143;-79
2023/11/10 07:52:39;;;;;;;;;;;7.70;99.90;;;7.09;100.00;98949.50;5025766;28;20072;-79
2023/11/10 07:55:07;;;;;;;3.92;0.93;;;7.70;99.90;;;7.22;100.00;98951.13;5018819;28;19921;-79
2023/11/10 07:57:33;;;;;;;5.68;1.00;;;7.80;99.90;;;7.25;100.00;98945.25;5013620;28;20044;-80
2023/11/10 08:00:00;;;;;;;9.27;1.08;;;7.80;99.90;;;7.30;100.00;98948.06;5030478;28;20412;-81
2023/11/10 08:02:26;;;;;;;4.13;1.00;;;7.90;99.90;;;7.31;100.00;98941.56;5015389;28;20107;-79
2023/11/10 08:04:52;;;;;;;3.15;0.90;;;7.90;99.90;;;7.41;100.00;98959.97;5025760;28;20484;-79
2023/11/10 08:07:18;;;;;;;2.85;0.77;;;8.00;99.90;;;7.32;100.00;98937.78;5029270;28;20033;-80
2023/11/10 08:09:44;;;;;;;4.63;0.90;;;8.00;99.90;;;7.34;100.00;98949.22;5024069;28;20089;-79
2023/11/10 08:12:10;;;;;;;4.03;0.90;;;8.00;99.90;;;7.31;100.00;98954.34;5020754;28;20053;-79
2023/11/10 08:14:36;;;;;;;5.20;1.30;;;8.00;99.90;;;7.40;100.00;98962.91;5033100;28;20037;-79
2023/11/10 08:17:01;;;;;;;4.55;1.15;;;8.00;99.90;;;7.33;100.00;98955.72;5022539;28;20124;-79
2023/11/10 08:19:27;;;;;;;2.45;0.95;;;8.00;99.90;;;7.28;100.00;98958.31;5020041;28;20037;-78
2023/11/10 08:21:53;;;;;;;3.28;1.13;;;8.00;99.90;;;7.39;100.00;98967.53;5024245;28;20034;-78
2023/11/10 08:24:19;;;;;;;5.80;1.55;;;8.00;99.90;;;7.34;100.00;98970.13;5026175;28;20032;-79
2023/11/10 08:26:45;;;;;;;5.15;1.10;;;8.00;99.90;;;7.23;100.00;98969.06;5027423;28;20037;-79
2023/11/10 08:29:13;;;;;;;5.93;1.10;;;8.00;99.90;;;7.15;100.00;98951.25;5028155;28;20088;-79
2023/11/10 08:31:39;;;;;;;1.95;0.80;;;7.90;99.90;;;7.16;100.00;98963.75;5027318;28;20041;-80
2023/11/10 08:34:05;;;;;;;3.17;1.10;;;7.90;99.90;;;7.23;100.00;98977.22;5034693;28;20547;-79
2023/11/10 08:36:32;;;;;;;3.00;0.80;;;7.90;99.90;;;7.27;100.00;98972.94;5027365;28;20052;-80
2023/11/10 08:38:58;;;;;;;4.55;1.00;;;8.00;99.90;;;7.36;100.00;98968.00;5028218;28;21285;-79
2023/11/10 08:41:24;;;;;;;3.47;0.90;;;8.00;99.90;;;7.59;100.00;98991.56;5045503;28;20067;-79
2023/11/10 08:43:50;;;;;;;3.88;0.82;;;8.20;99.90;;;7.76;100.00;98980.78;5023830;28;20509;-81
2023/11/10 08:46:15;;;;;;;5.25;1.00;;;8.40;99.90;;;7.72;100.00;98979.63;5024614;28;20037;-86
2023/11/10 08:48:42;;;;;;;1.90;0.63;;;8.50;99.90;;;7.80;100.00;98992.00;5024528;28;20064;-81
2023/11/10 08:51:10;;;;;;;4.03;0.82;;;8.50;99.90;;;7.65;100.00;98997.09;5027842;28;20038;-80
2023/11/10 08:53:37;;;;;;;3.15;0.90;;;8.40;99.90;;;7.58;100.00;98998.06;5027544;28;20037;-80
2023/11/10 08:56:04;;;;;;;2.67;0.73;;;8.30;99.90;;;7.56;100.00;98993.91;5027239;28;20531;-79
2023/11/10 08:58:30;;;;;;;3.53;0.90;;;8.30;99.90;;;7.47;100.00;98985.34;5012778;28;20084;-79
2023/11/10 09:00:56;;;;;;;3.85;0.80;;;8.30;99.90;;;7.51;100.00;98975.66;5036984;28;20038;-79
2023/11/10 09:03:21;;;;;;;2.63;0.70;;;8.20;99.90;;;7.47;100.00;98980.72;5026257;28;20034;-79
2023/11/10 09:05:47;;;;;;;4.13;0.90;;;8.20;99.90;;;7.59;100.00;98967.16;5028836;28;20052;-78
2023/11/10 09:08:13;;;;;;;1.30;0.60;;;8.30;99.90;;;7.68;100.00;98972.19;5032046;28;20038;-79
2023/11/10 09:10:39;;;;;;;2.88;0.82;;;8.40;99.90;;;7.82;100.00;98972.75;5028983;28;20545;-80
2023/11/10 09:13:04;;;;;;;4.22;0.85;;;8.50;99.90;;;7.92;100.00;98984.66;5030540;28;20041;-79
2023/11/10 09:15:31;;;;;;;4.35;0.77;;;8.60;99.90;;;7.98;100.00;98982.06;5026755;28;20037;-80
2023/11/10 09:17:57;;;;;;;3.00;0.70;;;8.70;99.90;;;8.06;100.00;98992.53;5027242;28;20036;-80
2023/11/10 09:20:23;;;;;;;5.43;0.68;;;8.70;99.90;;;8.00;100.00;98996.22;5027681;28;20301;-79
2023/11/10 09:22:49;;;;;;;3.25;0.88;;;8.80;99.90;;;8.02;100.00;98984.03;5027095;28;20073;-79
2023/11/10 09:25:19;;;;;;;2.78;0.70;;;8.80;99.90;;;8.12;100.00;99001.63;5032658;28;20038;-78
2023/11/10 09:27:46;;;;;;;3.95;0.80;;;8.80;99.90;;;8.11;100.00;99006.22;5030090;28;20142;-78
2023/11/10 09:30:14;;;;;;;3.45;0.75;;;8.80;99.90;;;8.24;100.00;98996.16;5026128;28;20026;-79
2023/11/10 09:32:41;;;;;;;3.90;0.70;;;8.80;99.90;;;8.34;100.00;99005.31;5029173;28;20040;-80
2023/11/10 09:35:07;;;;;;;2.35;0.60;;;8.90;99.90;;;8.39;100.00;99007.31;5014007;28;20460;-79
2023/11/10 09:37:33;;;;;;;3.15;1.02;;;9.00;99.90;;;8.44;100.00;99020.19;5025377;28;20030;-80
2023/11/10 09:39:59;;;;;;;2.78;0.75;;;9.00;99.90;;;8.40;100.00;99013.56;5026204;28;20036;-78
2023/11/10 09:42:26;;;;;;;2.90;0.90;;;9.10;99.90;;;8.45;100.00;99014.47;5013594;28;20034;-79
2023/11/10 09:44:55;;;;;;;3.13;0.70;;;9.10;99.90;;;8.49;100.00;99012.97;5020589;28;20128;-79
2023/11/10 09:47:26;;;;;;;3.70;0.80;;;9.10;99.90;;;8.51;100.00;99017.34;5026550;28;20619;-76
2023/11/10 09:49:53;;;;;;;3.25;0.90;;;9.10;99.90;;;8.61;100.00;99014.81;5013261;28;20390;-77
2023/11/10 09:52:21;;;;;;;3.83;1.05;;;9.20;99.90;;;8.73;100.00;99012.03;5021415;28;20134;-77
2023/11/10 09:54:51;;;;;;;2.13;0.70;;;9.30;99.90;;;8.83;100.00;99019.56;5019296;28;20099;-78
2023/11/10 09:57:17;;;;;;;1.58;0.60;;;9.40;99.90;;;8.85;100.00;99014.69;5034705;28;20037;-78
2023/11/10 09:59:44;;;;;;;3.80;0.60;;;9.40;99.90;;;8.97;100.00;99020.88;5014391;28;20595;-78
2023/11/10 10:02:13;;;;;;;3.38;0.88;;;9.50;99.90;;;8.90;100.00;99025.66;5019619;28;20429;-78
2023/11/10 10:04:43;;;;;;;5.22;1.10;;;9.50;99.90;;;8.73;100.00;99018.28;5025328;28;20113;-77
2023/11/10 10:07:12;;;;;;;3.63;0.88;;;9.40;99.90;;;8.73;100.00;99028.34;5014377;28;20150;-77
2023/11/10 10:09:40;;;;;;;3.00;1.05;;;9.40;99.90;;;8.63;100.00;99024.38;5012675;28;20038;-76
2023/11/10 10:12:08;;;;;;;;;;;9.30;99.90;;;8.49;100.00;99017.56;5017087;28;20029;-75
2023/11/10 10:14:38;;;;;;;2.42;0.80;;;9.20;99.90;;;8.55;100.00;99018.50;5012786;28;19917;-75
2023/11/10 10:17:06;;;;;;;3.20;0.90;;;9.20;99.90;;;8.57;100.00;99019.09;5015677;28;20481;-76
2023/11/10 10:19:32;;;;;;;3.28;0.70;;;9.20;99.90;;;8.53;100.00;99016.03;5033643;28;20034;-77
2023/11/10 10:21:59;;;;;;;2.35;0.80;;;9.20;99.90;;;8.58;100.00;99024.25;5016606;28;20037;-77
2023/11/10 10:24:26;;;;;;;2.50;0.90;;;9.20;99.90;;;8.67;100.00;99023.88;5012875;28;20034;-78
2023/11/10 10:26:51;;;;;;;2.78;0.65;;;9.20;99.90;;;8.65;100.00;99020.59;5012686;28;20039;-77